Date,TemperatureHighF,TemperatureAvgF,TemperatureLowF,DewpointHighF,DewpointAvgF,DewpointLowF,HumidityHigh,HumidityAvg,HumidityLow,PressureMaxIn,PressureMinIn,WindSpeedMaxMPH,WindSpeedAvgMPH,GustSpeedMaxMPH,PrecipitationSumIn
2013-1-1,34.3,28.6,15.8,27.0,17.8,4.0,78,65,52,29.60,29.38,8,3,13,0.00
2013-1-2,26.2,17.1,7.2,16.0,9.4,-1.0,82,72,60,29.83,29.57,5,1,9,0.00
2013-1-3,18.5,8.8,-2.3,11.0,0.0,-8.0,79,68,48,29.84,29.65,3,1,4,0.00
2013-1-4,37.0,28.1,15.6,24.0,19.8,11.0,86,72,58,29.65,29.47,7,2,13,0.01
2013-1-5,38.4,32.8,24.8,26.0,21.6,17.0,79,64,46,29.89,29.52,7,2,15,0.06
2013-1-6,38.9,30.0,22.4,30.0,25.2,18.0,94,83,68,29.84,29.58,4,0,7,0.07
2013-1-7,35.0,30.4,20.5,30.0,22.8,16.0,86,74,57,30.03,29.62,7,1,9,0.01
2013-1-8,41.7,29.4,19.2,29.0,22.7,16.0,91,77,60,30.02,29.92,4,0,7,0.07
2013-1-9,43.0,29.8,20.9,32.0,25.7,19.0,93,85,55,30.04,29.66,5,1,13,0.02
2013-1-10,42.8,37.3,28.8,30.0,25.4,23.0,80,63,50,30.19,29.73,9,2,21,0.06
2013-1-11,33.4,29.5,24.5,31.0,25.9,22.0,97,86,74,30.18,29.84,2,0,5,0.16
2013-1-12,39.5,34.9,31.7,39.0,34.4,31.0,99,98,97,29.85,29.77,1,0,3,0.05
2013-1-13,42.4,38.8,35.3,42.0,38.6,35.0,99,99,98,29.80,29.63,2,0,6,0.01
2013-1-14,48.2,41.6,34.8,47.0,37.1,26.0,100,85,58,29.92,29.53,5,1,11,0.03
2013-1-15,38.3,32.7,27.9,27.0,25.2,24.0,87,74,60,29.99,29.87,3,0,5,0.00
2013-1-16,31.0,30.0,28.2,30.0,28.5,25.0,97,94,81,29.89,29.47,1,0,2,0.00
2013-1-17,37.3,30.9,24.8,32.0,25.2,11.0,98,81,55,29.76,29.49,4,1,9,0.16
2013-1-18,24.8,19.2,14.6,11.0,3.9,-2.0,69,52,41,30.08,29.70,6,1,9,0.00
2013-1-19,43.0,32.8,19.0,32.0,21.3,10.0,76,63,53,29.99,29.48,8,2,13,0.11
2013-1-20,45.3,36.2,24.3,32.0,25.0,12.0,79,65,44,29.62,29.21,9,2,16,0.05
2013-1-21,25.4,21.5,17.3,19.0,12.3,6.0,91,69,54,29.72,29.44,4,0,8,0.00
2013-1-22,20.6,15.8,9.1,19.0,6.0,-2.0,92,67,41,29.75,29.42,8,1,10,0.00
2013-1-23,11.9,7.2,2.7,4.0,-5.4,-9.0,81,57,43,29.82,29.74,7,2,14,0.00
2013-1-24,16.0,6.6,-3.9,-2.0,-6.5,-9.0,82,57,39,29.94,29.78,9,2,10,0.00
2013-1-25,19.4,12.4,5.2,11.0,-2.5,-7.0,87,53,34,30.01,29.72,4,0,6,0.00
2013-1-26,22.3,13.7,5.9,11.0,3.5,-1.0,89,66,39,29.93,29.69,6,1,13,0.00
2013-1-27,27.4,16.7,5.9,7.0,3.3,0.0,77,57,38,30.14,29.94,5,0,7,0.00
2013-1-28,21.8,17.4,10.9,20.0,12.8,4.0,94,82,65,30.13,29.67,2,0,3,0.00
2013-1-29,31.6,27.1,21.8,31.0,25.6,20.0,97,94,89,29.83,29.67,3,0,4,0.07
2013-1-30,51.6,39.9,31.7,52.0,39.5,31.0,100,98,97,29.77,29.01,6,1,11,0.30
2013-1-31,57.5,41.7,26.8,57.0,35.2,17.0,100,79,51,29.25,28.57,12,4,24,0.84
2013-2-1,30.1,24.9,19.2,17.0,11.4,7.0,74,57,44,29.74,29.25,9,3,15,0.00
2013-2-2,28.1,21.3,12.8,15.0,8.8,4.0,78,59,42,29.88,29.68,7,1,12,0.00
2013-2-3,28.5,22.4,15.6,17.0,15.4,13.0,92,75,58,29.70,29.40,3,0,7,0.00
2013-2-4,26.2,21.9,15.9,15.0,10.9,7.0,78,63,46,29.60,29.40,7,2,12,0.00
2013-2-5,30.2,23.3,16.7,22.0,14.2,10.0,87,69,52,29.66,29.56,4,0,7,0.00
2013-2-6,34.2,26.2,20.3,26.0,17.1,5.0,94,71,42,29.97,29.56,8,1,10,0.01
2013-2-7,28.9,21.7,12.7,9.0,6.9,5.0,79,55,38,30.18,29.98,4,1,6,0.00
2013-2-8,27.5,23.3,18.0,25.0,17.5,6.0,94,80,44,30.09,29.39,11,2,14,0.00
2013-2-9,21.9,18.0,12.3,21.0,16.2,10.0,95,92,88,29.93,29.39,9,4,19,0.00
2013-2-10,31.8,18.3,4.9,27.0,14.4,2.0,89,85,78,30.13,29.93,4,1,6,0.09
2013-2-11,32.8,25.4,16.6,32.0,23.9,13.0,98,94,84,29.98,29.30,3,0,4,0.00
2013-2-12,39.1,35.7,32.8,32.0,29.4,23.0,98,78,65,29.54,29.32,8,2,14,0.32
2013-2-13,38.5,33.5,29.8,26.0,24.2,22.0,77,69,56,29.52,29.37,4,1,7,0.08
2013-2-14,42.4,32.8,25.1,25.0,22.9,21.0,84,68,48,29.61,29.37,5,0,6,0.05
2013-2-15,50.5,36.4,27.0,34.0,28.6,23.0,95,75,50,29.62,29.52,6,1,8,0.02
2013-2-16,37.0,32.0,25.7,30.0,23.8,8.0,95,73,48,29.62,29.41,8,1,11,0.05
2013-2-17,25.6,20.6,13.0,9.0,4.6,0.0,59,50,39,29.46,29.18,9,4,15,0.00
2013-2-18,27.2,18.4,9.7,6.0,1.4,-1.0,63,49,31,29.81,29.47,7,2,14,0.00
2013-2-19,41.9,29.2,16.6,36.0,21.3,5.0,97,73,55,29.83,29.22,4,0,9,0.09
2013-2-20,35.5,28.4,24.4,35.0,18.5,12.0,97,67,48,29.48,29.22,11,3,17,0.01
2013-2-21,28.1,24.6,21.1,17.0,13.8,10.0,77,64,54,29.95,29.46,8,3,14,0.00
2013-2-22,39.8,29.7,18.6,26.0,20.6,15.0,87,70,50,30.06,29.93,4,1,7,0.00
2013-2-23,34.3,32.4,30.9,33.0,28.9,25.0,97,87,75,29.94,29.55,2,0,4,0.05
2013-2-24,36.0,32.8,31.7,35.0,32.1,31.0,98,98,96,29.55,29.38,4,1,8,0.28
2013-2-25,36.4,32.1,27.2,34.0,30.8,27.0,98,95,88,29.89,29.56,1,0,4,0.17
2013-2-26,40.2,34.5,30.3,34.0,30.6,28.0,98,86,67,29.97,29.78,4,0,7,0.00
2013-2-27,37.0,33.9,31.6,37.0,32.9,29.0,98,96,83,29.78,29.27,5,1,10,1.21
2013-2-28,39.9,34.1,30.7,37.0,33.0,30.0,98,96,89,29.27,29.19,2,0,5,0.11
2013-3-1,41.5,35.4,30.2,33.0,29.8,25.0,98,81,62,29.36,29.20,5,1,10,0.00
2013-3-2,38.5,34.2,30.1,29.0,26.7,24.0,83,74,65,29.36,29.29,8,1,11,0.00
2013-3-3,35.9,30.9,27.2,29.0,24.7,22.0,92,78,71,29.32,29.25,5,1,8,0.01
2013-3-4,36.6,30.0,25.0,24.0,21.6,19.0,80,71,59,29.46,29.31,10,2,12,0.00
2013-3-5,43.3,34.5,27.1,29.0,25.5,20.0,80,70,57,29.72,29.47,5,1,9,0.00
2013-3-6,37.6,34.6,31.2,34.0,30.1,27.0,94,83,73,29.76,29.68,11,3,17,0.02
2013-3-7,36.1,32.3,30.2,31.0,29.1,26.0,97,88,72,29.75,29.68,11,3,13,0.02
2013-3-8,38.4,32.8,29.2,31.0,28.7,25.0,97,85,66,29.86,29.64,7,2,14,0.13
2013-3-9,54.9,40.4,29.1,26.0,20.8,13.0,79,51,21,29.98,29.85,7,2,10,0.03
2013-3-10,50.8,37.3,24.9,33.0,27.9,21.0,91,70,49,30.04,29.89,6,1,8,0.00
2013-3-11,47.5,40.8,34.4,41.0,35.7,31.0,90,82,72,29.93,29.75,5,1,10,0.00
2013-3-12,51.9,46.4,39.9,51.0,45.4,38.0,98,96,90,29.74,29.32,8,1,14,0.99
2013-3-13,45.9,38.9,33.1,37.0,28.1,20.0,92,68,42,29.46,29.39,6,1,10,0.00
2013-3-14,33.8,27.7,22.4,26.0,15.2,9.0,74,60,47,29.52,29.42,8,2,13,0.00
2013-3-15,38.7,29.4,21.3,30.0,16.7,7.0,92,61,35,29.53,29.29,6,2,14,0.00
2013-3-16,37.1,30.3,23.4,25.0,16.2,14.0,73,57,41,29.53,29.36,5,1,8,0.00
2013-3-17,35.0,28.9,22.4,18.0,11.1,5.0,71,50,29,29.96,29.54,8,2,12,0.00
2013-3-18,37.3,26.2,14.4,25.0,8.8,3.0,86,51,28,30.11,29.84,4,1,7,0.00
2013-3-19,32.5,29.8,27.0,32.0,28.9,25.0,98,96,88,29.83,29.33,3,0,7,0.02
2013-3-20,36.9,28.3,21.3,29.0,22.7,19.0,97,80,60,29.46,29.37,6,1,13,0.32
2013-3-21,39.3,28.0,17.1,21.0,17.3,14.0,92,67,38,29.47,29.25,6,1,7,0.25
2013-3-22,36.5,29.3,20.8,24.0,19.4,14.0,79,67,53,29.43,29.30,5,1,10,0.04
2013-3-23,38.8,33.4,27.3,24.0,21.7,20.0,80,63,50,29.47,29.36,9,2,12,0.00
2013-3-24,44.1,35.9,30.0,26.0,24.0,22.0,75,63,48,29.51,29.38,5,1,11,0.00
2013-3-25,42.4,35.7,28.4,29.0,25.9,23.0,80,68,52,29.42,29.15,6,2,10,0.00
2013-3-26,45.1,37.0,31.2,32.0,26.7,21.0,88,68,45,29.46,29.22,3,0,6,0.00
2013-3-27,51.7,37.7,27.2,35.0,27.1,21.0,83,67,40,29.55,29.43,8,1,10,0.00
2013-3-28,49.4,41.2,34.3,37.0,32.5,30.0,94,72,54,29.69,29.54,5,1,7,0.02
2013-3-29,54.6,43.2,35.0,35.0,32.2,30.0,85,67,41,29.72,29.64,4,1,8,0.00
2013-3-30,55.1,43.7,31.6,33.0,25.9,19.0,86,54,25,29.75,29.66,4,1,9,0.00
2013-3-31,55.9,41.4,27.1,40.0,28.8,22.0,94,65,34,29.76,29.36,9,1,15,0.12
2013-4-1,57.2,41.3,31.8,45.0,33.8,14.0,98,77,43,29.47,29.17,8,2,16,0.25
2013-4-2,37.0,31.5,26.8,22.0,16.8,13.0,77,56,39,29.62,29.48,11,3,18,0.00
2013-4-3,40.9,32.3,26.9,21.0,15.8,13.0,71,52,34,29.87,29.60,9,3,14,0.00
2013-4-4,55.8,39.7,25.7,27.0,19.6,16.0,72,48,23,29.97,29.67,6,1,14,0.00
2013-4-5,57.1,44.3,34.9,31.0,27.5,24.0,83,55,28,29.66,29.33,6,2,12,0.00
2013-4-6,47.2,37.0,28.9,27.0,12.1,7.0,67,38,22,29.95,29.56,8,2,13,0.00
2013-4-7,55.3,41.6,25.8,41.0,28.3,11.0,86,61,40,29.95,29.60,8,2,18,0.01
2013-4-8,64.1,49.6,37.4,41.0,37.7,35.0,97,68,34,29.72,29.61,4,1,9,0.00
2013-4-9,64.0,55.3,45.0,51.0,43.8,38.0,94,67,51,29.66,29.52,9,1,11,0.02
2013-4-10,63.4,52.8,46.2,52.0,48.4,43.0,97,86,63,29.64,29.46,4,1,6,0.28
2013-4-11,48.8,44.1,35.5,48.0,38.3,30.0,98,81,57,29.78,29.50,6,2,9,0.07
2013-4-12,35.7,34.0,32.3,34.0,33.1,31.0,98,96,92,29.79,29.47,4,1,6,0.30
2013-4-13,50.9,41.4,32.9,41.0,36.3,32.0,98,83,58,29.59,29.46,5,1,8,0.33
2013-4-14,50.1,42.2,33.7,38.0,31.4,26.0,90,68,43,29.88,29.56,6,1,12,0.00
2013-4-15,60.1,44.0,28.1,36.0,31.3,26.0,92,64,40,30.03,29.88,5,1,9,0.00
2013-4-16,63.6,51.2,39.3,52.0,43.3,32.0,91,75,55,30.01,29.70,11,2,19,0.04
2013-4-17,64.7,54.3,45.4,52.0,37.0,28.0,95,56,30,29.97,29.71,7,2,10,0.01
2013-4-18,61.8,50.0,34.5,45.0,34.4,30.0,84,58,36,30.05,29.76,8,2,13,0.00
2013-4-19,71.1,59.6,50.1,62.0,55.9,45.0,99,88,71,29.75,29.22,6,2,17,0.28
2013-4-20,58.2,47.4,36.9,57.0,36.5,22.0,96,69,38,29.92,29.27,8,2,14,0.53
2013-4-21,51.9,40.9,30.3,23.0,20.6,16.0,71,47,25,30.30,29.94,7,2,10,0.00
2013-4-22,56.2,42.5,29.4,30.0,25.4,21.0,79,54,29,30.38,30.22,6,2,13,0.00
2013-4-23,42.5,38.8,34.3,37.0,33.7,29.0,90,82,75,30.22,29.79,6,2,11,0.00
2013-4-24,76.2,55.0,39.8,49.0,44.0,37.0,93,70,35,29.78,29.39,7,2,14,0.00
2013-4-25,60.5,50.8,42.7,49.0,33.9,26.0,95,56,30,29.91,29.42,6,2,13,0.02
2013-4-26,65.5,49.7,32.2,35.0,31.5,27.0,88,54,28,30.05,29.92,6,1,9,0.00
2013-4-27,66.6,52.6,36.0,39.0,34.3,29.0,87,54,26,30.06,29.89,6,1,8,0.00
2013-4-28,72.4,56.0,38.3,44.0,37.9,32.0,91,56,25,29.97,29.79,8,1,9,0.00
2013-4-29,66.7,55.4,46.6,47.0,37.9,29.0,78,54,37,29.89,29.82,4,1,10,0.00
2013-4-30,73.5,60.0,49.6,42.0,33.6,27.0,69,40,21,29.97,29.87,7,1,8,0.00
2013-5-1,76.5,58.7,39.1,45.0,34.0,28.0,73,43,20,30.11,29.97,5,1,8,0.00
2013-5-2,82.6,61.1,43.5,48.0,40.1,27.0,85,52,21,30.10,29.89,5,1,11,0.00
2013-5-3,70.1,55.6,40.9,45.0,39.7,31.0,80,57,37,30.17,29.98,5,1,8,0.00
2013-5-4,73.5,56.9,41.2,49.0,38.5,24.0,95,57,18,30.01,29.85,6,1,11,0.00
2013-5-5,74.4,54.3,35.3,43.0,35.9,31.0,85,54,23,29.96,29.81,5,0,8,0.00
2013-5-6,75.1,56.0,39.2,50.0,41.2,34.0,94,64,23,29.92,29.74,4,0,7,0.00
2013-5-7,80.6,63.7,44.8,57.0,50.1,42.0,96,66,26,29.81,29.68,4,1,8,0.00
2013-5-8,73.0,62.1,53.0,62.0,57.7,52.0,98,86,63,29.81,29.66,4,0,10,0.32
2013-5-9,73.2,61.5,54.4,60.0,57.8,53.0,99,88,62,29.65,29.49,3,0,6,0.07
2013-5-10,79.4,64.1,52.2,62.0,56.1,52.0,99,78,49,29.61,29.50,3,0,7,0.01
2013-5-11,64.6,61.2,57.7,63.0,59.2,55.0,99,93,74,29.50,29.30,5,0,8,0.44
2013-5-12,65.9,55.6,44.9,60.0,48.0,34.0,99,78,49,29.47,29.24,5,0,12,0.06
2013-5-13,53.1,45.9,40.9,34.0,31.7,28.0,75,59,42,29.70,29.48,5,1,9,0.00
2013-5-14,57.4,46.7,37.3,35.0,33.1,29.0,84,62,39,29.72,29.64,3,0,9,0.00
2013-5-15,59.2,45.1,31.4,53.0,40.8,30.0,97,86,53,29.70,29.32,5,0,7,0.05
2013-5-16,79.7,64.8,50.2,51.0,44.6,36.0,97,55,25,29.43,29.28,5,1,16,0.00
2013-5-17,70.1,58.2,46.5,44.0,40.7,36.0,81,55,31,29.85,29.45,5,1,10,0.00
2013-5-18,73.7,58.6,42.3,49.0,44.3,39.0,90,63,35,29.95,29.84,5,0,9,0.00
2013-5-19,64.2,55.5,47.4,57.0,51.8,46.0,98,88,71,29.97,29.82,1,0,8,0.12
2013-5-20,81.2,65.9,54.4,67.0,60.5,54.0,99,85,59,29.82,29.56,2,0,5,0.02
2013-5-21,90.9,68.5,52.8,73.0,62.7,52.0,98,84,48,29.66,29.39,5,0,14,0.59
2013-5-22,72.8,62.2,52.0,70.0,60.8,51.0,99,95,84,29.61,29.45,3,0,7,1.06
2013-5-23,71.5,66.5,64.1,69.0,66.0,64.0,99,98,91,29.49,29.38,2,0,8,1.04
2013-5-24,65.3,57.5,44.9,65.0,55.9,44.0,100,94,80,29.53,29.26,4,0,11,0.22
2013-5-25,45.7,43.5,40.2,46.0,42.9,39.0,100,97,94,29.53,29.44,5,1,10,0.49
2013-5-26,55.2,46.3,39.1,46.0,41.8,38.0,98,85,68,29.76,29.43,4,1,11,0.10
2013-5-27,71.8,56.0,38.5,47.0,41.5,37.0,97,63,34,29.81,29.73,7,0,10,0.00
2013-5-28,73.1,58.5,41.8,55.0,47.0,40.0,95,69,39,29.88,29.77,2,0,6,0.00
2013-5-29,69.7,61.2,56.5,66.0,60.1,55.0,99,95,88,29.79,29.57,3,0,7,0.32
2013-5-30,87.0,72.3,60.5,74.0,66.3,60.0,100,83,56,29.73,29.65,3,0,7,0.16
2013-5-31,95.1,77.1,61.7,75.0,67.1,61.0,99,75,37,29.73,29.55,2,0,5,0.02
2013-6-1,94.1,78.2,64.3,74.0,68.1,62.0,94,73,41,29.60,29.45,5,0,8,0.01
2013-6-2,89.1,75.1,68.1,74.0,69.0,66.0,96,82,60,29.49,29.31,6,1,8,0.01
2013-6-3,78.4,67.6,54.4,67.0,61.3,44.0,99,82,56,29.51,29.41,3,0,8,0.00
2013-6-4,72.8,60.1,47.7,51.0,45.8,41.0,79,61,42,29.73,29.51,6,0,15,0.00
2013-6-5,76.7,62.0,47.2,56.0,50.3,45.0,95,68,39,29.84,29.71,4,0,5,0.00
2013-6-6,72.1,60.8,50.8,58.0,53.1,49.0,95,77,48,29.82,29.70,2,0,7,0.00
2013-6-7,55.1,53.3,51.5,55.0,52.9,51.0,99,98,93,29.72,29.45,2,0,5,0.00
2013-6-8,54.8,51.6,50.8,55.0,51.5,51.0,100,99,99,29.45,29.32,3,1,4,0.00
2013-6-12,55.8,55.3,54.7,52.0,51.7,51.0,87,87,86,29.46,29.46,0,0,0,0.00
2013-6-13,56.2,53.3,49.3,56.0,52.5,48.0,99,97,89,29.47,29.32,2,0,4,0.01
2013-6-14,76.8,60.0,50.6,61.0,54.1,50.0,99,83,43,29.45,29.31,3,0,7,0.01
2013-6-15,78.2,65.5,53.3,55.0,51.3,47.0,93,64,35,29.59,29.46,2,0,9,0.03
2013-6-16,70.1,62.9,50.9,62.0,55.8,47.0,92,78,68,29.59,29.33,2,0,7,0.02
2013-6-17,85.2,68.0,58.0,67.0,61.2,56.0,98,81,46,29.53,29.40,3,0,8,0.02
2013-6-18,64.2,59.7,56.1,63.0,59.5,56.0,99,99,96,29.58,29.52,2,0,3,0.02
2013-6-19,74.5,61.7,50.8,57.0,51.3,46.0,100,72,42,29.81,29.57,3,0,7,0.01
2013-6-20,81.1,63.6,46.1,59.0,52.0,45.0,96,69,30,29.92,29.80,3,0,7,0.00
2013-6-21,85.6,69.9,55.6,64.0,57.9,54.0,94,69,39,29.89,29.81,2,0,4,0.01
2013-6-22,87.0,72.3,59.0,70.0,62.2,57.0,93,72,46,29.84,29.70,2,0,7,0.01
2013-6-23,91.5,76.1,62.9,75.0,66.2,58.0,86,72,53,29.77,29.59,5,0,6,0.00
2013-6-24,92.9,77.8,66.9,76.0,70.4,66.0,98,80,52,29.65,29.51,3,0,8,0.00
2013-6-25,90.8,75.8,64.1,76.0,69.4,64.0,100,83,54,29.58,29.35,2,0,7,0.01
2013-6-26,80.9,73.4,66.7,72.0,68.9,66.0,97,86,71,29.45,29.36,2,0,8,0.01
2013-6-27,82.4,71.1,64.9,73.0,68.4,64.0,99,91,72,29.45,29.31,2,0,4,0.00
2013-6-28,83.7,71.7,64.0,75.0,68.9,64.0,100,91,70,29.31,29.06,4,1,13,0.01
2013-6-29,84.5,74.4,68.7,73.0,70.1,68.0,100,87,64,29.31,29.10,3,0,8,0.00
2013-6-30,86.0,74.0,68.4,76.0,71.0,68.0,99,90,67,29.54,29.31,2,0,5,0.01
2013-7-1,74.5,72.1,70.3,74.0,71.7,70.0,100,98,94,29.67,29.54,1,0,4,0.00
2013-7-2,85.7,76.0,70.8,77.0,73.0,70.0,99,91,72,29.76,29.66,3,0,9,0.01
2013-7-3,87.8,78.5,72.0,76.0,73.4,71.0,97,85,64,29.82,29.75,4,0,7,0.00
2013-7-4,92.8,80.5,71.4,78.0,74.2,71.0,99,82,59,29.83,29.70,3,0,5,0.00
2013-7-5,93.7,82.1,72.2,79.0,74.8,72.0,98,80,57,29.78,29.65,2,0,7,0.00
2013-7-6,88.9,79.7,72.7,77.0,72.9,68.0,97,81,58,29.71,29.62,4,0,5,0.00
2013-7-7,90.7,75.2,67.0,80.0,71.3,66.0,98,88,64,29.66,29.54,2,0,4,0.00
2013-7-8,88.1,76.9,70.4,75.0,71.4,70.0,99,84,60,29.66,29.53,2,0,6,0.00
2013-7-9,82.1,73.9,69.6,74.0,70.7,68.0,97,90,75,29.71,29.63,2,0,3,0.00
2013-7-10,84.0,74.3,70.4,77.0,72.6,69.0,99,94,78,29.65,29.40,3,0,9,0.01
2013-7-11,83.9,73.9,67.4,75.0,70.7,65.0,100,90,63,29.58,29.38,2,0,5,0.00
2013-7-12,79.6,70.3,63.4,68.0,63.2,59.0,92,79,63,29.82,29.58,2,0,5,0.00
2013-7-13,75.0,68.7,63.9,70.0,65.4,60.0,96,89,81,29.92,29.82,2,0,4,0.00
2013-7-14,91.6,78.4,68.5,76.0,72.2,68.0,99,83,58,29.94,29.82,2,0,5,0.00
2013-7-15,92.7,79.1,68.9,78.0,72.5,68.0,99,82,54,29.84,29.73,1,0,5,0.00
2013-7-16,91.7,79.2,68.1,75.0,70.7,67.0,98,77,50,29.81,29.74,3,0,7,0.00
2013-7-17,95.3,80.8,67.6,78.0,72.6,67.0,98,78,56,29.82,29.62,1,0,3,0.00
2013-7-18,95.3,83.5,73.0,77.0,73.9,71.0,96,74,50,29.64,29.54,2,0,7,0.00
2013-7-19,96.4,83.6,72.2,79.0,74.4,70.0,95,75,52,29.55,29.33,3,0,10,0.00
2013-7-20,87.9,79.2,69.8,78.0,70.5,62.0,90,75,61,29.45,29.29,5,0,7,0.00
2013-7-21,87.2,74.0,63.2,71.0,65.3,61.0,95,75,52,29.60,29.45,2,0,4,0.00
2013-7-22,85.6,72.2,64.0,73.0,67.1,63.0,97,85,62,29.64,29.46,2,0,4,0.07
2013-7-23,79.3,71.1,66.7,77.0,69.8,66.0,100,96,84,29.46,29.16,2,0,6,2.08
2013-7-24,80.0,71.2,60.0,70.0,64.7,53.0,100,81,58,29.62,29.22,4,0,10,0.04
2013-7-25,71.7,62.1,54.5,63.0,55.2,49.0,89,78,63,29.74,29.63,3,0,5,0.00
2013-7-26,69.9,63.5,59.4,66.0,61.9,58.0,99,94,86,29.70,29.62,2,0,3,0.01
2013-7-27,84.2,68.0,54.2,72.0,62.5,54.0,99,84,57,29.70,29.59,2,0,6,0.00
2013-7-28,81.0,70.3,62.2,71.0,65.9,62.0,99,87,68,29.64,29.56,2,0,6,0.00
2013-7-29,84.6,72.0,65.7,70.0,65.9,61.0,97,82,56,29.69,29.57,2,0,5,0.00
2013-7-30,79.8,69.1,57.9,63.0,59.4,55.0,94,73,51,29.76,29.67,2,0,5,0.00
2013-7-31,82.8,69.4,57.2,66.0,60.5,56.0,96,75,48,29.79,29.66,2,0,4,0.00
2013-8-1,77.4,64.9,57.6,70.0,62.9,57.0,99,93,75,29.67,29.48,4,0,5,0.00
2013-8-2,81.7,70.3,61.9,69.0,63.8,61.0,100,82,51,29.50,29.43,5,0,7,0.00
2013-8-3,79.4,68.0,59.2,66.0,60.3,51.0,99,79,54,29.50,29.41,3,0,6,0.00
2013-8-4,79.0,65.3,56.1,61.0,56.5,53.0,93,74,50,29.56,29.43,3,0,8,0.00
2013-8-5,76.1,62.6,51.8,54.0,50.9,46.0,96,69,40,29.69,29.55,3,0,10,0.00
2013-8-6,79.3,63.3,48.1,59.0,54.0,47.0,97,75,44,29.78,29.69,2,0,5,0.00
2013-8-7,79.7,67.7,57.5,64.0,60.2,56.0,97,79,52,29.81,29.70,3,0,10,0.00
2013-8-8,81.6,72.8,65.3,73.0,68.7,63.0,98,87,73,29.71,29.60,2,0,6,0.00
2013-8-9,75.7,72.2,69.8,75.0,71.4,69.0,100,97,91,29.62,29.37,3,0,10,0.00
2013-8-10,79.6,69.7,60.6,69.0,60.8,52.0,99,76,49,29.66,29.43,4,0,11,0.00
2013-8-11,79.2,65.0,52.5,61.0,55.7,51.0,94,74,46,29.74,29.63,2,0,5,0.00
2013-8-12,82.7,67.6,55.6,66.0,60.3,55.0,98,80,52,29.67,29.54,4,0,4,0.00
2013-8-13,72.3,66.6,62.4,71.0,65.4,61.0,99,96,91,29.55,29.30,0,0,3,0.00
2013-8-14,72.1,62.1,53.0,64.0,55.3,50.0,98,79,58,29.62,29.32,5,0,10,0.00
2013-8-15,75.1,61.6,50.4,59.0,53.8,49.0,97,77,51,29.76,29.62,3,0,5,0.00
2013-8-16,78.6,63.3,49.7,62.0,55.5,49.0,98,78,46,29.84,29.76,2,0,4,0.00
2013-8-17,82.6,64.9,51.2,64.0,57.5,50.0,98,79,43,29.93,29.84,2,0,3,0.00
2013-8-18,76.6,65.6,56.3,67.0,61.7,56.0,98,88,70,29.91,29.72,2,0,2,0.00
2013-8-19,78.6,68.1,58.4,68.0,62.9,58.0,99,85,62,29.72,29.60,1,0,6,0.00
2013-8-20,85.2,69.9,56.9,69.0,62.1,56.0,99,78,54,29.74,29.64,4,0,5,0.00
2013-8-21,87.8,71.8,58.2,71.0,64.5,57.0,98,80,51,29.80,29.64,1,0,4,0.00
2013-8-22,85.4,73.2,61.0,75.0,68.5,60.0,99,86,70,29.67,29.45,2,0,6,0.00
2013-8-23,78.5,68.5,57.8,69.0,61.2,53.0,98,79,52,29.77,29.47,4,0,5,0.00
2013-8-24,79.0,63.2,51.0,59.0,54.2,50.0,96,75,43,29.97,29.78,4,0,4,0.00
2013-8-25,82.6,64.8,48.9,64.0,56.5,48.0,99,77,43,30.03,29.81,3,0,6,0.00
2013-8-26,80.7,69.1,60.4,70.0,64.4,58.0,98,85,68,29.81,29.50,2,0,6,0.00
2013-8-27,85.5,72.8,67.2,73.0,69.5,67.0,100,90,63,29.51,29.45,1,0,4,0.00
2013-8-28,86.6,72.1,66.5,75.0,68.8,66.0,99,90,65,29.56,29.45,1,0,5,0.00
2013-8-29,72.6,66.4,62.8,68.0,64.3,61.0,99,93,83,29.69,29.55,3,0,5,0.00
2013-8-30,85.6,70.7,60.8,73.0,66.0,60.0,97,86,62,29.66,29.44,1,0,4,0.00
2013-8-31,80.9,72.8,68.6,75.0,71.0,67.0,100,94,81,29.44,29.38,2,0,7,0.00
2013-9-1,81.1,72.4,66.0,75.0,71.1,66.0,100,95,81,29.50,29.42,1,0,4,0.00
2013-9-2,78.3,71.7,68.1,76.0,71.1,68.0,100,98,89,29.45,29.30,1,0,3,0.00
2013-9-3,74.1,67.7,60.0,70.0,64.8,57.0,100,90,80,29.48,29.32,1,0,5,0.00
2013-9-4,79.8,66.9,58.2,62.0,58.1,56.0,96,76,47,29.55,29.46,3,0,9,0.00
2013-9-5,69.7,60.6,50.0,61.0,53.9,47.0,98,80,49,29.80,29.50,3,0,6,0.00
2013-9-6,69.5,54.1,41.5,51.0,46.3,41.0,98,78,44,29.91,29.74,3,0,5,0.00
2013-9-7,76.7,60.2,45.7,61.0,53.0,45.0,98,79,50,29.74,29.50,1,0,5,0.00
2013-9-8,70.2,61.3,47.9,64.0,54.1,44.0,98,79,47,29.75,29.41,4,0,8,0.00
2013-9-9,68.1,54.6,40.6,54.0,47.6,39.0,97,79,54,29.89,29.74,2,0,6,0.00
2013-9-10,74.9,65.0,55.6,72.0,63.2,52.0,100,94,86,29.76,29.64,2,0,5,0.00
2013-9-11,92.5,76.9,68.6,82.0,73.6,68.0,100,90,67,29.70,29.55,3,0,7,0.00
2013-9-12,78.5,69.6,66.0,76.0,69.2,66.0,100,99,93,29.58,29.28,2,0,12,0.00
2013-9-13,72.1,64.1,55.9,68.0,63.1,54.0,100,96,82,29.43,29.23,2,0,6,0.00
2013-9-14,64.7,56.4,49.5,57.0,52.7,49.0,99,88,71,29.71,29.43,2,0,7,0.00
2013-9-15,68.9,55.5,43.1,58.0,50.8,42.0,100,85,62,29.83,29.69,3,0,4,0.00
2013-9-16,66.3,55.7,44.7,58.0,51.2,39.0,99,85,68,29.91,29.65,3,0,8,0.00
2013-9-17,63.0,48.7,38.0,48.0,41.5,36.0,95,78,50,30.09,29.92,2,0,6,0.00
2013-9-18,72.6,52.9,38.3,57.0,47.6,38.0,99,84,54,29.98,29.78,3,0,3,0.00
2013-9-19,77.5,56.8,43.0,60.0,51.7,42.0,99,85,46,29.80,29.67,1,0,3,0.00
2013-9-20,77.0,59.7,48.6,63.0,55.1,48.0,100,86,60,29.74,29.62,1,0,5,0.00
2013-9-21,73.2,63.3,54.5,66.0,60.6,54.0,98,91,73,29.65,29.29,3,0,14,0.00
2013-9-22,67.3,59.3,49.4,66.0,54.2,44.0,99,84,63,29.51,29.23,4,0,12,0.00
2013-9-23,62.4,50.3,41.0,48.0,44.0,40.0,97,80,55,29.68,29.51,4,0,7,0.00
2013-9-24,67.6,50.5,37.8,49.0,43.3,37.0,97,79,47,29.68,29.48,2,0,6,0.00
2013-9-25,69.8,54.3,40.8,57.0,49.2,40.0,98,84,58,29.62,29.51,1,0,4,0.00
2013-9-26,64.7,55.2,50.2,53.0,50.1,49.0,96,84,60,29.77,29.62,3,0,6,0.00
2013-9-27,62.7,54.0,48.0,56.0,51.2,47.0,97,90,73,29.92,29.77,2,0,4,0.00
2013-9-28,74.5,56.6,44.6,60.0,52.4,44.0,100,88,57,30.00,29.89,1,0,4,0.00
2013-9-29,72.0,55.7,48.0,59.0,51.4,46.0,99,87,55,29.89,29.72,1,0,3,0.00
2013-9-30,71.8,54.2,42.0,56.0,49.1,41.0,99,85,50,29.75,29.59,1,0,3,0.00
2013-10-1,77.5,57.9,44.9,64.0,53.6,44.0,100,87,60,29.64,29.50,1,0,4,0.00
2013-10-2,75.7,62.8,49.7,64.0,56.9,49.0,99,82,63,29.61,29.50,5,0,11,0.00
2013-10-3,74.0,60.7,49.4,58.0,53.2,48.0,95,78,48,29.74,29.61,1,0,3,0.00
2013-10-4,60.5,55.5,51.2,59.0,54.6,50.0,99,97,93,29.75,29.68,1,0,4,0.00
2013-10-5,67.6,60.6,56.2,61.0,58.3,56.0,99,92,77,29.75,29.69,1,0,2,0.00
2013-10-6,59.3,55.4,52.5,59.0,55.1,52.0,99,99,97,29.83,29.72,2,0,5,0.00
2013-10-7,72.5,58.6,52.8,69.0,58.0,53.0,100,98,87,29.75,29.36,4,0,14,0.00
2013-10-8,64.2,53.4,43.5,53.0,45.5,42.0,96,77,45,30.02,29.56,3,0,6,0.00
2013-10-9,63.4,48.2,38.1,48.0,43.0,37.0,99,84,52,30.14,30.00,2,0,5,0.00
2013-10-10,54.4,46.7,39.8,51.0,45.3,39.0,99,95,84,30.01,29.83,2,0,3,0.00
2013-10-11,71.4,54.9,43.9,55.0,48.3,43.0,99,81,42,29.82,29.73,2,0,4,0.00
2013-10-12,56.8,51.7,44.6,55.0,49.9,44.0,98,93,88,30.03,29.80,3,1,4,0.00
2013-10-13,60.9,53.0,45.4,51.0,48.5,44.0,96,85,70,30.09,30.01,3,0,6,0.00
2013-10-14,66.5,53.6,41.6,53.0,48.1,41.0,98,83,59,30.02,29.86,3,0,5,0.00
2013-10-15,68.2,58.7,50.8,57.0,53.1,49.0,96,82,67,29.90,29.78,2,0,3,0.00
2013-10-16,60.1,53.5,48.4,53.0,50.4,47.0,97,89,75,29.79,29.54,1,0,4,0.00
2013-10-17,73.4,60.2,51.8,60.0,54.2,50.0,98,83,49,29.54,29.31,5,0,7,0.00
2013-10-18,63.5,57.9,48.4,60.0,49.1,39.0,98,74,53,29.56,29.22,7,1,12,0.00
2013-10-19,64.6,51.3,38.4,48.0,42.4,37.0,96,74,46,29.62,29.36,4,0,7,0.00
2013-10-20,58.5,50.6,41.7,49.0,39.8,35.0,96,69,42,29.67,29.33,5,1,11,0.00
2013-10-21,65.6,50.7,37.4,45.0,40.0,35.0,93,70,43,29.76,29.60,5,0,7,0.00
2013-10-22,59.3,49.8,41.7,53.0,45.2,37.0,96,84,71,29.60,29.35,5,0,9,0.00
2013-10-23,50.9,42.9,33.9,39.0,35.4,32.0,95,76,49,29.44,29.24,2,0,4,0.00
2013-10-24,50.6,43.8,36.5,35.0,31.1,27.0,82,63,41,29.55,29.31,7,1,15,0.00
2013-10-25,48.0,40.2,34.6,35.0,31.1,28.0,91,72,48,29.80,29.56,6,1,9,0.00
2013-10-26,52.7,42.2,30.3,36.0,30.9,28.0,94,67,41,29.80,29.49,12,2,16,0.00
2013-10-27,51.5,46.0,40.8,37.0,33.5,31.0,76,62,50,29.71,29.44,4,1,8,0.00
2013-10-28,55.8,42.1,32.8,38.0,32.2,27.0,91,70,45,30.00,29.71,4,1,10,0.00
2013-10-29,46.4,35.1,26.7,28.0,24.9,23.0,90,69,43,30.12,30.00,3,0,5,0.00
2013-10-30,52.0,37.6,30.1,40.0,32.1,23.0,94,81,65,30.01,29.84,2,0,4,0.00
2013-10-31,57.0,41.3,31.8,57.0,40.7,31.0,100,97,93,29.89,29.39,5,0,11,0.00
2013-11-1,66.6,61.0,54.4,62.0,56.5,45.0,98,86,67,29.38,29.05,7,2,16,0.01
2013-11-2,63.3,51.3,41.2,48.0,44.1,39.0,95,78,51,29.40,29.23,3,0,5,0.00
2013-11-3,46.1,38.6,28.0,43.0,27.8,18.0,90,66,41,30.09,29.41,6,2,10,0.00
2013-11-4,39.6,30.7,24.3,21.0,18.9,18.0,81,63,42,30.35,30.10,4,0,7,0.05
2013-11-5,47.9,35.7,23.8,37.0,28.3,20.0,90,76,56,30.36,30.14,3,0,7,0.28
2013-11-6,58.4,49.1,39.6,48.0,42.4,37.0,90,79,62,30.14,29.65,5,1,15,0.22
2013-11-7,58.1,50.0,39.3,56.0,44.9,26.0,96,83,58,29.64,29.34,6,2,11,0.51
2013-11-8,43.8,36.9,31.1,36.0,27.4,23.0,91,69,50,29.76,29.49,8,1,13,0.72
2013-11-9,43.2,36.5,28.3,31.0,26.2,22.0,82,67,52,29.88,29.63,6,1,12,0.00
2013-11-10,48.5,42.3,36.9,40.0,34.7,30.0,89,75,61,29.62,29.39,5,1,12,0.01
2013-11-11,49.3,43.3,36.3,32.0,29.0,26.0,69,58,45,29.75,29.53,6,1,11,0.00
2013-11-12,45.3,33.6,24.8,34.0,20.7,14.0,78,60,47,29.86,29.53,6,2,11,0.00
2013-11-13,32.8,27.2,21.7,19.0,14.8,12.0,76,60,42,29.98,29.82,4,1,7,0.00
2013-11-14,48.9,37.6,28.3,27.0,22.3,19.0,70,56,40,29.81,29.70,4,1,8,0.00
2013-11-15,54.7,40.2,26.6,32.0,24.5,20.0,81,56,33,29.85,29.74,4,0,6,0.00
2013-11-16,57.6,43.3,34.0,35.0,31.5,28.0,82,66,39,29.95,29.83,2,0,6,0.00
2013-11-17,48.0,40.0,33.6,48.0,38.0,30.0,98,92,80,29.94,29.44,2,0,4,0.05
2013-11-18,61.5,55.3,43.5,59.0,45.4,31.0,100,72,48,29.43,29.15,7,2,15,0.29
2013-11-19,42.8,36.5,27.5,33.0,23.3,18.0,70,59,50,29.97,29.35,9,2,13,0.00
2013-11-20,37.7,29.2,23.5,20.0,16.5,14.0,76,60,41,30.28,29.98,6,1,9,0.00
2013-11-21,43.0,31.8,18.8,31.0,22.3,16.0,91,70,43,30.31,30.03,3,0,7,0.00
2013-11-22,45.1,39.6,35.7,44.0,37.6,31.0,98,92,73,30.01,29.48,5,0,7,0.08
2013-11-23,45.3,35.8,26.1,44.0,26.3,15.0,95,69,54,29.62,29.46,10,2,13,0.00
2013-11-24,24.7,20.6,16.5,20.0,6.3,1.0,88,55,38,29.91,29.50,11,3,14,0.00
2013-11-25,31.2,23.1,12.5,16.0,8.2,0.0,64,53,42,30.05,29.89,4,1,8,0.00
2013-11-26,35.1,31.2,26.7,31.0,23.7,15.0,96,75,53,29.97,29.66,3,0,7,0.11
2013-11-27,43.3,36.9,31.7,43.0,36.2,31.0,99,97,87,29.64,28.95,2,0,7,2.53
2013-11-28,34.2,26.2,20.0,31.0,15.8,10.0,86,66,47,30.09,29.18,7,2,21,0.00
2013-11-29,30.8,23.5,16.8,17.0,14.2,10.0,85,69,49,30.39,30.10,5,0,8,0.00
2013-11-30,28.2,20.5,10.5,18.0,12.5,8.0,89,72,55,30.47,30.08,4,0,8,0.00
2013-12-1,37.0,31.1,25.3,32.0,26.6,17.0,90,83,68,30.07,29.68,2,0,3,0.01
2013-12-2,38.6,34.5,31.7,36.0,32.5,30.0,97,92,88,29.68,29.55,2,0,3,0.00
2013-12-3,42.5,34.8,31.2,38.0,32.5,29.0,98,92,83,29.62,29.52,3,0,4,0.00
2013-12-4,39.9,31.0,24.0,32.0,27.0,23.0,96,86,66,29.84,29.62,2,0,4,0.00
2013-12-5,46.9,35.1,29.6,47.0,33.7,27.0,99,94,87,29.84,29.55,2,0,5,0.10
2013-12-6,49.4,42.0,32.1,49.0,40.1,31.0,99,93,77,29.80,29.50,3,0,10,0.09
2013-12-7,32.1,30.0,26.3,31.0,25.8,20.0,97,85,71,30.12,29.73,4,0,8,0.05
2013-12-8,29.1,26.8,23.2,22.0,19.0,16.0,84,73,58,30.23,30.11,2,0,4,0.00
2013-12-9,31.7,28.0,23.8,31.0,26.2,20.0,98,93,77,30.12,29.55,3,0,4,0.00
2013-12-10,32.5,28.8,20.4,31.0,26.4,17.0,97,91,79,29.65,29.46,3,0,7,0.00
2013-12-11,29.8,23.1,19.1,22.0,18.4,16.0,91,82,65,29.86,29.66,5,1,11,0.00
2013-12-12,22.3,18.0,13.8,19.0,9.3,4.0,90,70,47,29.94,29.71,5,1,9,0.00
2013-12-13,25.1,18.8,12.7,22.0,12.6,6.0,88,77,63,30.05,29.65,5,1,10,0.00
2013-12-14,12.5,9.5,6.7,9.0,3.3,-2.0,90,76,64,30.26,29.82,5,2,8,0.00
2013-12-15,28.6,21.6,11.4,25.0,18.4,9.0,94,87,75,29.78,29.17,6,2,9,0.00
2013-12-16,24.8,20.9,13.3,21.0,11.3,4.0,87,67,54,29.86,29.38,7,1,10,0.00
2013-12-17,13.0,7.0,0.5,10.0,3.4,-3.0,93,85,69,29.91,29.66,4,2,6,0.00
2013-12-18,29.7,19.8,11.3,23.0,16.1,9.0,90,85,75,29.73,29.61,6,1,8,0.00
2013-12-19,38.7,30.6,22.0,27.0,23.6,19.0,92,76,60,29.75,29.60,5,1,11,0.08
2013-12-20,41.6,34.4,28.4,35.0,30.0,25.0,92,84,68,29.75,29.56,2,0,6,0.43
2013-12-21,48.2,41.4,35.1,44.0,37.9,32.0,97,87,77,29.60,29.49,3,0,5,0.43
2013-12-22,58.0,51.7,42.2,57.0,51.1,41.0,100,97,93,29.55,29.32,6,1,13,0.02
2013-12-23,53.2,40.0,35.0,52.0,39.2,32.0,99,97,87,29.77,29.53,4,0,6,0.14
2013-12-24,34.5,29.5,20.2,31.0,20.2,9.0,88,69,58,29.91,29.71,7,1,12,0.05
2013-12-25,20.9,17.6,11.9,9.0,5.5,2.0,68,60,47,30.16,29.91,5,1,9,0.00
2013-12-26,26.4,22.3,18.8,24.0,17.2,8.0,93,81,63,30.12,29.76,4,0,6,0.00
2013-12-27,33.2,27.2,19.1,24.0,20.9,16.0,90,78,63,29.94,29.86,3,0,7,0.00
2013-12-28,43.0,31.7,22.9,31.0,25.7,20.0,90,79,62,29.87,29.66,4,1,7,0.07
2013-12-29,36.1,32.0,27.7,34.0,29.7,25.0,98,91,82,29.68,29.15,4,1,5,1.09
2013-12-30,35.4,27.8,13.8,35.0,20.7,6.0,98,76,53,29.83,29.23,6,1,12,0.02
2013-12-31,22.1,16.0,8.6,15.0,9.2,5.0,85,75,59,29.86,29.68,4,1,10,0.00
2014-1-1,24.9,19.9,15.9,14.0,9.6,6.0,83,65,53,30.02,29.85,5,1,10,0.00
2014-1-2,18.0,11.2,4.3,15.0,8.4,1.0,90,88,84,29.99,29.51,9,3,12,0.00